sensor_id;sensor_type;location;lat;lon;timestamp;P1;durP1;ratioP1;P2;durP2;ratioP2
77248;SDS011;66280;45.124;20.718;2023-05-27T00:02:53;16.30;;;10.55;;
77248;SDS011;66280;45.124;20.718;2023-05-27T00:12:54;19.27;;;10.30;;
77248;SDS011;66280;45.124;20.718;2023-05-27T00:22:55;17.88;;;10.30;;
77248;SDS011;66280;45.124;20.718;2023-05-27T00:32:55;18.43;;;10.77;;
77248;SDS011;66280;45.124;20.718;2023-05-27T00:42:57;18.97;;;11.13;;
77248;SDS011;66280;45.124;20.718;2023-05-27T00:52:58;21.47;;;13.50;;
77248;SDS011;66280;45.124;20.718;2023-05-27T01:02:59;23.20;;;13.30;;
77248;SDS011;66280;45.124;20.718;2023-05-27T01:13:12;22.37;;;12.23;;
77248;SDS011;66280;45.124;20.718;2023-05-27T01:23:18;25.45;;;12.70;;
77248;SDS011;66280;45.124;20.718;2023-05-27T01:33:23;24.10;;;12.83;;
77248;SDS011;66280;45.124;20.718;2023-05-27T01:43:25;22.57;;;13.10;;
77248;SDS011;66280;45.124;20.718;2023-05-27T01:53:26;26.77;;;13.47;;
77248;SDS011;66280;45.124;20.718;2023-05-27T02:03:27;22.67;;;13.15;;
77248;SDS011;66280;45.124;20.718;2023-05-27T02:13:27;19.27;;;12.38;;
77248;SDS011;66280;45.124;20.718;2023-05-27T02:23:28;22.10;;;11.57;;
77248;SDS011;66280;45.124;20.718;2023-05-27T02:33:32;17.30;;;10.55;;
77248;SDS011;66280;45.124;20.718;2023-05-27T02:43:33;14.07;;;9.13;;
77248;SDS011;66280;45.124;20.718;2023-05-27T02:53:33;17.48;;;9.80;;
77248;SDS011;66280;45.124;20.718;2023-05-27T03:03:34;16.47;;;10.03;;
77248;SDS011;66280;45.124;20.718;2023-05-27T03:13:35;17.47;;;9.37;;
77248;SDS011;66280;45.124;20.718;2023-05-27T03:23:36;18.67;;;10.03;;
77248;SDS011;66280;45.124;20.718;2023-05-27T03:33:37;16.97;;;10.50;;
77248;SDS011;66280;45.124;20.718;2023-05-27T03:43:38;20.83;;;9.70;;
77248;SDS011;66280;45.124;20.718;2023-05-27T03:53:39;21.67;;;11.43;;
77248;SDS011;66280;45.124;20.718;2023-05-27T04:03:40;23.13;;;11.53;;
77248;SDS011;66280;45.124;20.718;2023-05-27T04:13:40;23.13;;;12.77;;
77248;SDS011;66280;45.124;20.718;2023-05-27T04:23:41;20.83;;;12.43;;
77248;SDS011;66280;45.124;20.718;2023-05-27T04:33:42;21.67;;;12.38;;
77248;SDS011;66280;45.124;20.718;2023-05-27T04:43:44;16.67;;;10.67;;
77248;SDS011;66280;45.124;20.718;2023-05-27T04:53:48;19.67;;;10.80;;
77248;SDS011;66280;45.124;20.718;2023-05-27T05:03:49;16.23;;;9.87;;
77248;SDS011;66280;45.124;20.718;2023-05-27T05:13:52;20.07;;;12.23;;
77248;SDS011;66280;45.124;20.718;2023-05-27T05:23:53;17.67;;;9.73;;
77248;SDS011;66280;45.124;20.718;2023-05-27T05:33:54;15.57;;;9.60;;
77248;SDS011;66280;45.124;20.718;2023-05-27T05:43:55;15.90;;;11.20;;
77248;SDS011;66280;45.124;20.718;2023-05-27T05:53:56;17.35;;;11.02;;
77248;SDS011;66280;45.124;20.718;2023-05-27T06:03:58;16.47;;;9.87;;
77248;SDS011;66280;45.124;20.718;2023-05-27T06:14:07;19.65;;;11.48;;
77248;SDS011;66280;45.124;20.718;2023-05-27T06:24:08;18.97;;;10.37;;
77248;SDS011;66280;45.124;20.718;2023-05-27T06:34:15;17.53;;;11.43;;
77248;SDS011;66280;45.124;20.718;2023-05-27T06:44:16;17.60;;;11.37;;
77248;SDS011;66280;45.124;20.718;2023-05-27T06:54:43;18.67;;;11.25;;
77248;SDS011;66280;45.124;20.718;2023-05-27T07:05:07;17.23;;;10.37;;
77248;SDS011;66280;45.124;20.718;2023-05-27T07:15:08;14.48;;;11.13;;
77248;SDS011;66280;45.124;20.718;2023-05-27T07:25:11;17.67;;;11.77;;
77248;SDS011;66280;45.124;20.718;2023-05-27T07:35:13;17.00;;;12.47;;
77248;SDS011;66280;45.124;20.718;2023-05-27T07:45:15;17.42;;;13.50;;
77248;SDS011;66280;45.124;20.718;2023-05-27T07:55:16;22.87;;;13.53;;
77248;SDS011;66280;45.124;20.718;2023-05-27T08:05:16;16.07;;;12.03;;
77248;SDS011;66280;45.124;20.718;2023-05-27T08:15:40;14.68;;;12.40;;
77248;SDS011;66280;45.124;20.718;2023-05-27T08:25:56;16.63;;;12.83;;
77248;SDS011;66280;45.124;20.718;2023-05-27T08:36:06;18.85;;;13.85;;
77248;SDS011;66280;45.124;20.718;2023-05-27T08:46:08;17.60;;;14.00;;
77248;SDS011;66280;45.124;20.718;2023-05-27T08:56:09;20.47;;;13.27;;
77248;SDS011;66280;45.124;20.718;2023-05-27T09:06:16;19.08;;;13.52;;
77248;SDS011;66280;45.124;20.718;2023-05-27T09:16:19;16.03;;;11.90;;
77248;SDS011;66280;45.124;20.718;2023-05-27T09:26:21;17.33;;;13.37;;
77248;SDS011;66280;45.124;20.718;2023-05-27T09:36:21;16.17;;;12.40;;
77248;SDS011;66280;45.124;20.718;2023-05-27T09:46:22;14.93;;;12.97;;
77248;SDS011;66280;45.124;20.718;2023-05-27T09:56:24;15.45;;;13.65;;
77248;SDS011;66280;45.124;20.718;2023-05-27T10:06:25;17.10;;;12.20;;
77248;SDS011;66280;45.124;20.718;2023-05-27T10:16:27;18.50;;;12.90;;
77248;SDS011;66280;45.124;20.718;2023-05-27T11:57:01;12.60;;;9.70;;
77248;SDS011;66280;45.124;20.718;2023-05-27T13:07:10;17.23;;;9.67;;
77248;SDS011;66280;45.124;20.718;2023-05-27T13:17:12;8.37;;;7.57;;
77248;SDS011;66280;45.124;20.718;2023-05-27T13:27:13;9.70;;;7.97;;
77248;SDS011;66280;45.124;20.718;2023-05-27T13:37:14;10.27;;;9.33;;
77248;SDS011;66280;45.124;20.718;2023-05-27T13:47:15;10.17;;;8.80;;
77248;SDS011;66280;45.124;20.718;2023-05-27T13:57:15;11.73;;;10.60;;
77248;SDS011;66280;45.124;20.718;2023-05-27T14:07:16;9.50;;;7.73;;
77248;SDS011;66280;45.124;20.718;2023-05-27T14:17:17;15.07;;;7.50;;
77248;SDS011;66280;45.124;20.718;2023-05-27T14:27:18;11.87;;;6.60;;
77248;SDS011;66280;45.124;20.718;2023-05-27T14:37:18;11.40;;;8.57;;
77248;SDS011;66280;45.124;20.718;2023-05-27T14:47:19;9.18;;;7.20;;
77248;SDS011;66280;45.124;20.718;2023-05-27T14:57:19;13.83;;;6.90;;
77248;SDS011;66280;45.124;20.718;2023-05-27T15:07:20;12.33;;;6.23;;
77248;SDS011;66280;45.124;20.718;2023-05-27T15:17:21;9.30;;;6.03;;
77248;SDS011;66280;45.124;20.718;2023-05-27T15:27:22;7.93;;;4.80;;
77248;SDS011;66280;45.124;20.718;2023-05-27T15:37:22;7.73;;;5.50;;
77248;SDS011;66280;45.124;20.718;2023-05-27T15:47:23;9.97;;;5.93;;
77248;SDS011;66280;45.124;20.718;2023-05-27T15:57:24;9.57;;;7.20;;
77248;SDS011;66280;45.124;20.718;2023-05-27T16:07:25;9.45;;;5.45;;
77248;SDS011;66280;45.124;20.718;2023-05-27T16:37:26;6.93;;;5.90;;
77248;SDS011;66280;45.124;20.718;2023-05-27T16:47:27;7.63;;;6.13;;
77248;SDS011;66280;45.124;20.718;2023-05-27T16:57:28;9.07;;;5.97;;
77248;SDS011;66280;45.124;20.718;2023-05-27T17:07:28;12.63;;;7.70;;
77248;SDS011;66280;45.124;20.718;2023-05-27T17:17:29;10.30;;;5.97;;
77248;SDS011;66280;45.124;20.718;2023-05-27T17:27:30;5.00;;;4.50;;
77248;SDS011;66280;45.124;20.718;2023-05-27T17:37:31;7.13;;;4.73;;
77248;SDS011;66280;45.124;20.718;2023-05-27T17:47:31;6.73;;;5.60;;
77248;SDS011;66280;45.124;20.718;2023-05-27T17:57:32;6.90;;;5.00;;
77248;SDS011;66280;45.124;20.718;2023-05-27T18:07:33;7.53;;;4.87;;
77248;SDS011;66280;45.124;20.718;2023-05-27T18:17:33;8.23;;;4.57;;
77248;SDS011;66280;45.124;20.718;2023-05-27T18:27:34;6.67;;;4.93;;
77248;SDS011;66280;45.124;20.718;2023-05-27T18:37:34;5.70;;;4.50;;
77248;SDS011;66280;45.124;20.718;2023-05-27T18:47:35;4.60;;;4.07;;
77248;SDS011;66280;45.124;20.718;2023-05-27T18:57:36;6.93;;;4.67;;
77248;SDS011;66280;45.124;20.718;2023-05-27T19:07:36;9.07;;;5.43;;
77248;SDS011;66280;45.124;20.718;2023-05-27T19:17:37;8.77;;;6.00;;
77248;SDS011;66280;45.124;20.718;2023-05-27T19:27:38;7.93;;;5.87;;
77248;SDS011;66280;45.124;20.718;2023-05-27T19:37:38;9.30;;;6.47;;
77248;SDS011;66280;45.124;20.718;2023-05-27T19:47:39;12.30;;;7.83;;
77248;SDS011;66280;45.124;20.718;2023-05-27T19:57:40;15.88;;;8.10;;
77248;SDS011;66280;45.124;20.718;2023-05-27T20:07:40;8.73;;;7.27;;
77248;SDS011;66280;45.124;20.718;2023-05-27T20:17:41;13.00;;;7.90;;
77248;SDS011;66280;45.124;20.718;2023-05-27T20:27:42;10.40;;;7.77;;
77248;SDS011;66280;45.124;20.718;2023-05-27T20:37:43;10.83;;;7.73;;
77248;SDS011;66280;45.124;20.718;2023-05-27T20:47:43;11.83;;;7.80;;
77248;SDS011;66280;45.124;20.718;2023-05-27T20:57:44;10.25;;;8.18;;
77248;SDS011;66280;45.124;20.718;2023-05-27T21:07:44;12.43;;;9.80;;
77248;SDS011;66280;45.124;20.718;2023-05-27T21:17:45;14.20;;;8.63;;
77248;SDS011;66280;45.124;20.718;2023-05-27T21:27:46;12.48;;;9.43;;
77248;SDS011;66280;45.124;20.718;2023-05-27T21:37:46;16.17;;;10.60;;
77248;SDS011;66280;45.124;20.718;2023-05-27T21:47:47;15.20;;;9.93;;
77248;SDS011;66280;45.124;20.718;2023-05-27T21:57:48;15.93;;;10.18;;
77248;SDS011;66280;45.124;20.718;2023-05-27T22:07:48;15.50;;;9.93;;
77248;SDS011;66280;45.124;20.718;2023-05-27T22:17:49;15.82;;;9.55;;
77248;SDS011;66280;45.124;20.718;2023-05-27T23:07:55;15.17;;;9.73;;
77248;SDS011;66280;45.124;20.718;2023-05-27T23:17:55;16.00;;;11.13;;
77248;SDS011;66280;45.124;20.718;2023-05-27T23:27:56;21.07;;;12.27;;
77248;SDS011;66280;45.124;20.718;2023-05-27T23:37:57;23.07;;;11.17;;
77248;SDS011;66280;45.124;20.718;2023-05-27T23:47:58;24.27;;;11.30;;
77248;SDS011;66280;45.124;20.718;2023-05-27T23:57:58;32.97;;;12.47;;
